International Virtual Aviation Organisation

Russian Federation and Kazakhstan MCD

 

Карточка аэропорта UAKK

Внимание!
Информация на этой странице в стадии наполнения.
Если вы не увидели какой-то информации, или заметили неточность - пожалуйста сообщите нам!
Спасибо!
Команда RU-STAFF
Название аэропортаКараганда
Название аэропорта (англ.)Karaganda
Превышение1768 ft. (538.9 m.)
Координаты49°40.302', 73°20.118'
Высота перехода5380
Эшелон переходаFL70
Коды ответчика0630-0637, 7220-7227
Зона ОрВДАстана РПИ (UACC)
Данные METARUAKK 191630Z VRB01MPS 9999 SCT050CB 18/15 Q1021 R23/2///60 NOSIG RMK QFE719/0958
Проноз погоды (TAF)UAKK 191100Z 1912/2012 VRB02MPS 9999 SCT030 BKN100 TX24/2010Z TN10/1923Z TEMPO 1913/1919 5000 -SHRA BKN030CB TEMPO 1920/2002 3100 BR SCT011 BECMG 2003/2005 04005MPS
NOTAMshow/hide NOTAM
AWOS   TABLE

Информация о ВПП

ВПП Длина ВПП (м.) Покрытие Курс ВПП Частота ILS
053601Железобетон50109.9
233601Железобетон230111.7

Диспетчерские позиции




Спутниковое изображение